createdAt,value
2023-02-19T00:10:45.707Z,10.64
2023-02-19T00:25:37.637Z,10.68
2023-02-19T00:40:29.664Z,10.74
2023-02-19T00:55:23.444Z,10.81
2023-02-19T01:10:17.498Z,10.82
2023-02-19T01:25:10.475Z,10.80
2023-02-19T01:40:02.439Z,10.81
2023-02-19T01:54:54.298Z,10.80
2023-02-19T02:10:05.162Z,10.76
2023-02-19T02:25:17.363Z,10.77
2023-02-19T02:40:13.132Z,10.71
2023-02-19T02:55:06.074Z,10.65
2023-02-19T03:25:24.219Z,10.47
2023-02-19T03:40:22.208Z,10.47
2023-02-19T03:55:18.236Z,10.45
2023-02-19T04:10:13.777Z,10.45
2023-02-19T04:25:06.607Z,10.35
2023-02-19T04:40:00.577Z,10.31
2023-02-19T04:54:59.366Z,10.12
2023-02-19T05:09:45.507Z,10.06
2023-02-19T05:24:38.282Z,9.94
2023-02-19T05:39:28.254Z,9.89
2023-02-19T05:54:18.999Z,9.90
2023-02-19T06:09:11.921Z,9.83
2023-02-19T06:24:08.893Z,9.92
2023-02-19T06:39:04.057Z,9.87
2023-02-19T06:53:56.871Z,9.85
2023-02-19T07:08:50.971Z,9.95
2023-02-19T07:23:43.842Z,10.12
2023-02-19T07:38:36.799Z,10.26
2023-02-19T07:53:29.662Z,10.28
2023-02-19T08:08:22.723Z,10.21
2023-02-19T08:25:41.082Z,10.35
2023-02-19T08:28:07.385Z,10.38
2023-02-19T08:42:30.701Z,10.63
2023-02-19T08:57:24.051Z,10.77
2023-02-19T09:12:18.084Z,10.92
2023-02-19T09:27:10.997Z,10.98
2023-02-19T09:42:03.989Z,11.19
2023-02-19T09:56:59.016Z,11.19
2023-02-19T10:11:58.057Z,11.30
2023-02-19T10:26:55.049Z,11.47
2023-02-19T10:57:20.029Z,11.88
2023-02-19T11:12:17.951Z,12.08
2023-02-19T11:27:11.167Z,12.56
2023-02-19T11:42:23.419Z,12.39
2023-02-19T11:57:41.778Z,12.73
2023-02-19T12:12:56.324Z,12.70
2023-02-19T12:28:03.637Z,12.58
2023-02-19T12:58:07.949Z,12.35
2023-02-19T13:13:02.989Z,12.57
2023-02-19T13:27:57.848Z,12.92
2023-02-19T13:42:53.357Z,12.83
2023-02-19T13:57:47.343Z,12.73
2023-02-19T14:12:38.258Z,12.54
2023-02-19T14:27:30.707Z,12.38
2023-02-19T14:42:24.712Z,12.54
2023-02-19T14:57:19.598Z,12.27
2023-02-19T15:12:14.376Z,12.11
2023-02-19T15:27:06.403Z,12.03
2023-02-19T15:42:00.592Z,11.97
2023-02-19T15:56:53.404Z,11.90
2023-02-19T16:11:53.369Z,11.85
2023-02-19T16:26:49.357Z,11.75
2023-02-19T16:41:48.408Z,11.65
2023-02-19T16:56:44.564Z,11.53
2023-02-19T17:11:37.925Z,11.45
2023-02-19T17:26:31.349Z,11.41
2023-02-19T17:41:23.803Z,11.35
2023-02-19T17:56:16.793Z,11.37
2023-02-19T18:11:09.940Z,11.30
2023-02-19T18:26:03.181Z,11.32
2023-02-19T18:40:54.550Z,11.33
2023-02-19T18:55:46.564Z,11.26
2023-02-19T19:10:38.326Z,11.22
2023-02-19T19:25:30.368Z,11.22
2023-02-19T19:40:22.320Z,11.13
2023-02-19T19:55:15.301Z,11.08
2023-02-19T20:10:09.782Z,11.02
2023-02-19T20:25:03.702Z,10.99
2023-02-19T20:39:57.514Z,10.90
2023-02-19T20:54:51.025Z,10.86
2023-02-19T21:09:43.995Z,10.77
2023-02-19T21:24:35.981Z,10.71
2023-02-19T21:39:29.932Z,10.67
2023-02-19T21:54:21.997Z,10.64
2023-02-19T22:24:06.842Z,10.61
2023-02-19T22:38:59.639Z,10.58
2023-02-19T22:53:53.602Z,10.49
2023-02-19T23:08:46.502Z,10.33
2023-02-19T23:23:38.556Z,10.12
2023-02-19T23:38:31.421Z,9.96
2023-02-19T23:53:23.352Z,9.79
